createdAt,value
2022-12-14T00:00:43.559Z,12.18
2022-12-14T00:02:07.510Z,12.27
2022-12-14T00:03:10.303Z,12.95
2022-12-14T00:04:13.842Z,13.75
2022-12-14T00:05:23.726Z,11.93
2022-12-14T00:06:33.484Z,12.85
2022-12-14T00:07:38.234Z,13.88
2022-12-14T00:08:42.030Z,15.50
2022-12-14T00:09:47.187Z,12.90
2022-12-14T00:10:49.679Z,12.07
2022-12-14T00:11:59.491Z,11.13
2022-12-14T00:13:08.496Z,10.95
2022-12-14T00:14:12.199Z,10.27
2022-12-14T00:15:14.678Z,9.77
2022-12-14T00:16:19.675Z,8.32
2022-12-14T00:17:28.459Z,8.25
2022-12-14T00:18:31.878Z,8.07
2022-12-14T00:19:34.482Z,9.25
2022-12-14T00:20:38.092Z,9.18
2022-12-14T00:21:41.579Z,9.10
2022-12-14T00:22:52.479Z,10.63
2022-12-14T00:23:56.592Z,10.13
2022-12-14T00:25:06.503Z,10.40
2022-12-14T00:26:10.914Z,9.77
2022-12-14T00:27:13.929Z,10.35
2022-12-14T00:28:17.453Z,11.32
2022-12-14T00:29:27.539Z,10.68
2022-12-14T00:30:30.968Z,10.57
2022-12-14T00:31:33.559Z,10.35
2022-12-14T00:32:37.055Z,9.70
2022-12-14T00:33:40.034Z,9.85
2022-12-14T00:34:50.517Z,10.07
2022-12-14T00:35:53.103Z,9.77
2022-12-14T00:37:02.714Z,9.30
2022-12-14T00:38:06.497Z,10.65
2022-12-14T00:39:11.007Z,10.00
2022-12-14T00:40:20.505Z,10.82
2022-12-14T00:41:26.189Z,9.77
2022-12-14T00:42:28.683Z,10.05
2022-12-14T00:43:32.469Z,10.35
2022-12-14T00:44:35.906Z,8.88
2022-12-14T00:45:44.486Z,10.13
2022-12-14T00:46:54.562Z,10.23
2022-12-14T00:47:57.986Z,10.32
2022-12-14T00:49:00.511Z,9.45
2022-12-14T00:50:04.409Z,9.95
2022-12-14T00:51:07.047Z,10.77
2022-12-14T00:52:16.514Z,9.40
2022-12-14T00:53:20.592Z,9.73
2022-12-14T00:54:24.054Z,9.75
2022-12-14T00:55:26.787Z,8.63
2022-12-14T00:56:30.271Z,9.45
2022-12-14T00:57:39.494Z,8.93
2022-12-14T00:58:42.931Z,8.77
2022-12-14T00:59:45.458Z,8.57
2022-12-14T01:00:54.484Z,8.73
2022-12-14T01:02:04.856Z,7.85
2022-12-14T01:03:14.610Z,7.60
2022-12-14T01:04:18.440Z,9.70
2022-12-14T01:05:21.481Z,9.07
2022-12-14T01:06:24.989Z,8.48
2022-12-14T01:07:27.491Z,9.35
2022-12-14T01:08:41.504Z,7.95
2022-12-14T01:09:43.985Z,8.65
2022-12-14T01:10:47.415Z,8.20
2022-12-14T01:11:51.933Z,7.55
2022-12-14T01:12:54.432Z,8.10
2022-12-14T01:14:04.518Z,8.70
2022-12-14T01:15:07.268Z,9.18
2022-12-14T01:16:11.798Z,8.23
2022-12-14T01:17:14.341Z,7.65
2022-12-14T01:18:17.842Z,8.55
2022-12-14T01:19:26.472Z,7.93
2022-12-14T01:20:29.913Z,7.95
2022-12-14T01:21:39.456Z,7.88
2022-12-14T01:22:42.904Z,7.82
2022-12-14T01:23:47.458Z,8.10
2022-12-14T01:24:50.895Z,7.25
2022-12-14T01:25:59.497Z,7.05
2022-12-14T01:27:02.948Z,7.63
2022-12-14T01:28:05.567Z,7.85
2022-12-14T01:29:09.376Z,8.05
2022-12-14T01:30:12.334Z,7.90
2022-12-14T01:31:23.877Z,8.23
2022-12-14T01:32:26.434Z,7.50
2022-12-14T01:33:31.022Z,7.82
2022-12-14T01:34:34.717Z,8.10
2022-12-14T01:35:37.272Z,8.07
2022-12-14T01:36:47.487Z,8.35
2022-12-14T01:37:56.493Z,8.52
2022-12-14T01:39:02.018Z,8.57
2022-12-14T01:40:05.668Z,9.38
2022-12-14T01:41:09.321Z,8.73
2022-12-14T01:42:13.556Z,9.57
2022-12-14T01:43:22.510Z,8.90
2022-12-14T01:44:44.506Z,9.35
2022-12-14T01:45:47.029Z,8.48
2022-12-14T01:46:53.685Z,8.73
2022-12-14T01:47:57.843Z,8.85
2022-12-14T01:49:10.500Z,8.43
2022-12-14T01:50:19.262Z,8.13
2022-12-14T01:51:21.875Z,8.13
2022-12-14T01:52:27.683Z,8.40
2022-12-14T01:53:36.514Z,8.82
2022-12-14T01:54:42.821Z,8.52
2022-12-14T01:55:52.992Z,9.18
2022-12-14T01:56:57.090Z,9.73
2022-12-14T01:58:08.523Z,9.23
2022-12-14T01:59:14.351Z,8.80
2022-12-14T02:00:17.098Z,9.35
2022-12-14T02:01:20.676Z,8.82
2022-12-14T02:02:30.833Z,8.80
2022-12-14T02:03:42.533Z,7.72
2022-12-14T02:04:46.561Z,8.95
2022-12-14T02:05:52.545Z,7.90
2022-12-14T02:07:00.959Z,8.32
2022-12-14T02:08:05.369Z,8.52
2022-12-14T02:09:16.462Z,8.30
2022-12-14T02:10:22.113Z,7.75
2022-12-14T02:11:30.135Z,8.70
2022-12-14T02:12:34.982Z,7.25
2022-12-14T02:13:46.468Z,8.43
2022-12-14T02:14:53.951Z,8.27
2022-12-14T02:15:56.597Z,8.60
2022-12-14T02:17:06.483Z,8.27
2022-12-14T02:18:10.516Z,8.45
2022-12-14T02:19:13.983Z,8.07
2022-12-14T02:20:17.434Z,8.13
2022-12-14T02:21:29.521Z,8.18
2022-12-14T02:22:46.993Z,8.85
2022-12-14T02:24:11.497Z,8.43
2022-12-14T02:25:26.540Z,9.20
2022-12-14T02:26:54.510Z,11.77
2022-12-14T02:28:05.410Z,14.23
2022-12-14T02:29:22.795Z,14.82
2022-12-14T02:30:28.382Z,14.50
2022-12-14T02:31:32.822Z,14.65
2022-12-14T02:33:02.531Z,14.10
2022-12-14T02:34:10.762Z,13.48
2022-12-14T02:35:18.420Z,16.05
2022-12-14T02:36:25.980Z,18.05
2022-12-14T02:37:31.864Z,17.50
2022-12-14T02:38:50.482Z,19.65
2022-12-14T02:39:57.287Z,19.73
2022-12-14T02:41:04.476Z,22.00
2022-12-14T02:42:09.685Z,23.05
2022-12-14T02:43:14.755Z,25.05
2022-12-14T02:44:29.479Z,20.95
2022-12-14T02:45:36.992Z,20.58
2022-12-14T02:46:48.762Z,16.05
2022-12-14T02:47:54.594Z,15.73
2022-12-14T02:49:00.956Z,15.30
2022-12-14T02:50:13.493Z,13.38
2022-12-14T02:51:21.715Z,14.48
2022-12-14T02:52:29.127Z,15.13
2022-12-14T02:53:36.656Z,15.13
2022-12-14T02:54:40.277Z,12.82
2022-12-14T02:55:52.482Z,13.55
2022-12-14T02:56:57.377Z,11.43
2022-12-14T02:58:01.802Z,11.88
2022-12-14T02:59:05.938Z,11.63
2022-12-14T03:00:16.512Z,11.88
2022-12-14T03:01:23.330Z,12.68
2022-12-14T03:02:49.603Z,11.75
2022-12-14T03:03:53.579Z,13.88
2022-12-14T03:05:02.496Z,13.60
2022-12-14T03:06:14.963Z,14.25
2022-12-14T03:07:28.141Z,12.52
2022-12-14T03:08:34.309Z,11.45
2022-12-14T03:09:36.807Z,10.93
2022-12-14T03:10:49.493Z,11.55
2022-12-14T03:11:55.320Z,10.50
2022-12-14T03:13:03.657Z,9.20
2022-12-14T03:14:07.516Z,9.40
2022-12-14T03:15:19.502Z,10.52
2022-12-14T03:16:26.247Z,8.20
2022-12-14T03:17:30.860Z,8.80
2022-12-14T03:18:38.132Z,8.50
2022-12-14T03:19:43.350Z,8.40
2022-12-14T03:20:55.484Z,8.30
2022-12-14T03:22:07.497Z,8.88
2022-12-14T03:23:12.458Z,8.10
2022-12-14T03:24:21.201Z,7.68
2022-12-14T03:25:25.879Z,7.38
2022-12-14T03:26:44.185Z,7.55
2022-12-14T03:27:52.711Z,7.85
2022-12-14T03:28:56.968Z,7.97
2022-12-14T03:30:01.901Z,7.63
2022-12-14T03:31:06.207Z,8.80
2022-12-14T03:32:19.479Z,8.27
2022-12-14T03:33:23.347Z,8.45
2022-12-14T03:34:30.067Z,9.52
2022-12-14T03:35:34.365Z,8.18
2022-12-14T03:36:42.648Z,9.75
2022-12-14T03:37:56.011Z,8.65
2022-12-14T03:39:00.962Z,8.35
2022-12-14T03:40:03.478Z,8.23
2022-12-14T03:41:14.253Z,8.65
2022-12-14T03:42:20.883Z,8.95
2022-12-14T03:43:35.498Z,8.90
2022-12-14T03:44:49.104Z,8.38
2022-12-14T03:45:56.719Z,8.75
2022-12-14T03:47:02.635Z,8.75
2022-12-14T03:48:11.228Z,9.27
2022-12-14T03:49:24.479Z,9.85
2022-12-14T03:50:31.399Z,8.95
2022-12-14T03:51:36.189Z,10.15
2022-12-14T03:52:47.495Z,9.95
2022-12-14T03:53:51.696Z,9.77
2022-12-14T03:55:00.362Z,10.18
2022-12-14T03:56:11.508Z,10.68
2022-12-14T03:57:17.930Z,10.27
2022-12-14T03:58:28.827Z,11.00
2022-12-14T03:59:34.907Z,10.73
2022-12-14T04:00:47.595Z,12.50
2022-12-14T04:01:54.765Z,13.77
2022-12-14T04:03:24.615Z,14.32
2022-12-14T04:04:32.342Z,14.90
2022-12-14T04:05:49.158Z,14.65
2022-12-14T04:06:55.724Z,16.95
2022-12-14T04:08:03.826Z,21.42
2022-12-14T04:09:14.092Z,25.55
2022-12-14T04:10:38.575Z,25.95
2022-12-14T04:12:09.498Z,30.33
2022-12-14T04:13:39.499Z,31.17
2022-12-14T04:15:04.769Z,34.70
2022-12-14T04:16:27.639Z,37.45
2022-12-14T04:17:51.638Z,31.13
2022-12-14T04:19:07.502Z,30.00
2022-12-14T04:20:13.490Z,29.45
2022-12-14T04:21:18.822Z,25.75
2022-12-14T04:22:24.612Z,25.05
2022-12-14T04:23:55.543Z,21.23
2022-12-14T04:25:17.608Z,17.92
2022-12-14T04:26:22.949Z,18.00
2022-12-14T04:27:30.465Z,16.23
2022-12-14T04:28:50.513Z,15.20
2022-12-14T04:30:04.540Z,14.25
2022-12-14T04:31:09.152Z,13.75
2022-12-14T04:32:17.638Z,13.40
2022-12-14T04:33:38.903Z,13.45
2022-12-14T04:34:43.900Z,13.88
2022-12-14T04:35:55.483Z,13.38
2022-12-14T04:37:00.593Z,14.65
2022-12-14T04:38:05.958Z,14.82
2022-12-14T04:39:09.694Z,15.95
2022-12-14T04:40:14.447Z,15.93
2022-12-14T04:41:27.494Z,15.55
2022-12-14T04:42:32.544Z,14.85
2022-12-14T04:43:37.132Z,16.02
2022-12-14T04:44:42.552Z,15.98
2022-12-14T04:45:55.525Z,14.93
2022-12-14T04:47:00.942Z,15.82
2022-12-14T04:48:14.481Z,14.70
2022-12-14T04:49:20.047Z,14.75
2022-12-14T04:50:27.431Z,14.35
2022-12-14T04:51:33.067Z,15.43
2022-12-14T04:52:45.502Z,14.55
2022-12-14T04:53:51.292Z,15.25
2022-12-14T04:54:57.142Z,15.00
2022-12-14T04:56:01.954Z,14.88
2022-12-14T04:57:19.070Z,14.52
2022-12-14T04:58:24.577Z,14.80
2022-12-14T04:59:27.498Z,15.32
2022-12-14T05:00:32.010Z,14.48
2022-12-14T05:01:39.420Z,13.57
2022-12-14T05:03:04.556Z,15.05
2022-12-14T05:04:26.504Z,14.10
2022-12-14T05:05:33.780Z,12.15
2022-12-14T05:06:41.820Z,11.75
2022-12-14T05:07:48.984Z,12.93
2022-12-14T05:09:08.472Z,13.88
2022-12-14T05:10:13.212Z,12.40
2022-12-14T05:11:52.005Z,11.55
2022-12-14T05:12:49.953Z,10.82
2022-12-14T05:13:59.526Z,11.20
2022-12-14T05:15:06.195Z,10.90
2022-12-14T05:16:09.298Z,11.15
2022-12-14T05:17:12.991Z,11.13
2022-12-14T05:18:16.287Z,11.43
2022-12-14T05:19:26.902Z,11.88
2022-12-14T05:20:30.533Z,10.93
2022-12-14T05:21:51.645Z,11.35
2022-12-14T05:22:56.375Z,11.48
2022-12-14T05:23:59.545Z,11.40
2022-12-14T05:25:09.519Z,11.13
2022-12-14T05:26:12.025Z,13.00
2022-12-14T05:27:15.620Z,12.80
2022-12-14T05:28:19.256Z,13.43
2022-12-14T05:29:22.756Z,13.57
2022-12-14T05:30:32.519Z,12.43
2022-12-14T05:31:35.167Z,14.27
2022-12-14T05:32:38.616Z,13.20
2022-12-14T05:33:41.106Z,14.80
2022-12-14T05:34:44.558Z,13.90
2022-12-14T05:35:53.490Z,14.27
2022-12-14T05:36:57.003Z,14.73
2022-12-14T05:38:01.816Z,15.05
2022-12-14T05:39:04.591Z,14.90
2022-12-14T05:40:08.589Z,15.38
2022-12-14T05:41:17.481Z,14.98
2022-12-14T05:42:21.006Z,13.93
2022-12-14T05:43:23.572Z,13.68
2022-12-14T05:44:26.987Z,14.05
2022-12-14T05:45:36.698Z,15.02
2022-12-14T05:46:40.390Z,14.55
2022-12-14T05:47:43.793Z,14.82
2022-12-14T05:48:49.425Z,15.25
2022-12-14T05:49:56.417Z,14.77
2022-12-14T05:51:11.545Z,13.85
2022-12-14T05:52:15.035Z,15.52
2022-12-14T05:53:18.934Z,16.60
2022-12-14T05:54:22.452Z,16.90
2022-12-14T05:55:25.154Z,16.92
2022-12-14T05:56:35.496Z,15.77
2022-12-14T05:57:45.480Z,15.30
2022-12-14T05:58:50.284Z,14.93
2022-12-14T05:59:53.764Z,15.43
2022-12-14T06:01:00.466Z,18.08
2022-12-14T06:02:04.077Z,16.30
2022-12-14T06:03:19.498Z,17.80
2022-12-14T06:04:29.726Z,16.50
2022-12-14T06:05:32.350Z,18.95
2022-12-14T06:06:35.805Z,19.25
2022-12-14T06:07:46.511Z,20.17
2022-12-14T06:08:50.540Z,21.95
2022-12-14T06:09:53.956Z,21.67
2022-12-14T06:11:02.326Z,22.10
2022-12-14T06:12:06.045Z,21.88
2022-12-14T06:13:15.483Z,24.42
2022-12-14T06:14:25.508Z,24.30
2022-12-14T06:15:33.801Z,28.15
2022-12-14T06:16:37.937Z,29.83
2022-12-14T06:17:50.655Z,30.45
2022-12-14T06:18:54.261Z,30.83
2022-12-14T06:20:04.509Z,32.40
2022-12-14T06:21:07.166Z,33.35
2022-12-14T06:22:10.589Z,34.33
2022-12-14T06:23:13.578Z,34.70
2022-12-14T06:24:18.357Z,33.75
2022-12-14T06:25:27.473Z,34.05
2022-12-14T06:26:31.904Z,32.95
2022-12-14T06:27:34.457Z,31.50
2022-12-14T06:28:38.390Z,31.50
2022-12-14T06:29:47.531Z,27.92
2022-12-14T06:30:51.045Z,24.10
2022-12-14T06:31:54.510Z,23.10
2022-12-14T06:32:57.310Z,21.40
2022-12-14T06:34:01.769Z,24.52
2022-12-14T06:35:10.521Z,24.95
2022-12-14T06:36:19.242Z,26.00
2022-12-14T06:37:22.740Z,26.85
2022-12-14T06:38:25.353Z,30.20
2022-12-14T06:39:30.171Z,28.08
2022-12-14T06:40:39.538Z,23.95
2022-12-14T06:41:43.065Z,20.63
2022-12-14T06:42:48.095Z,18.52
2022-12-14T06:43:51.568Z,24.85
2022-12-14T06:44:54.983Z,24.90
2022-12-14T06:46:07.516Z,23.60
2022-12-14T06:47:13.345Z,19.02
2022-12-14T06:48:15.914Z,18.83
2022-12-14T06:49:19.424Z,17.20
2022-12-14T06:50:22.002Z,16.48
2022-12-14T06:51:32.471Z,17.48
2022-12-14T06:52:35.158Z,18.33
2022-12-14T06:53:45.485Z,18.73
2022-12-14T06:54:50.182Z,18.02
2022-12-14T06:55:52.758Z,19.20
2022-12-14T06:57:02.540Z,20.80
2022-12-14T06:58:05.047Z,21.33
2022-12-14T06:59:08.826Z,19.92
2022-12-14T07:00:13.264Z,21.15
2022-12-14T07:01:18.592Z,21.80
2022-12-14T07:02:27.667Z,21.02
2022-12-14T07:03:37.992Z,21.98
2022-12-14T07:04:46.774Z,21.95
2022-12-14T07:05:50.245Z,23.10
2022-12-14T07:06:53.671Z,25.88
2022-12-14T07:08:03.655Z,27.98
2022-12-14T07:09:07.685Z,28.70
2022-12-14T07:10:13.563Z,28.90
2022-12-14T07:11:17.727Z,27.20
2022-12-14T07:12:20.300Z,25.98
2022-12-14T07:13:30.842Z,23.88
2022-12-14T07:14:40.510Z,21.05
2022-12-14T07:15:43.051Z,19.17
2022-12-14T07:16:48.696Z,18.58
2022-12-14T07:17:51.485Z,19.55
2022-12-14T07:19:02.495Z,16.83
2022-12-14T07:20:06.060Z,18.70
2022-12-14T07:21:17.547Z,18.45
2022-12-14T07:22:21.062Z,20.40
2022-12-14T07:23:27.823Z,20.85
2022-12-14T07:24:38.487Z,20.60
2022-12-14T07:25:49.354Z,19.58
2022-12-14T07:26:53.647Z,19.00
2022-12-14T07:27:56.262Z,18.63
2022-12-14T07:29:01.238Z,18.58
2022-12-14T07:30:10.486Z,18.25
2022-12-14T07:31:15.436Z,18.95
2022-12-14T07:32:17.966Z,17.88
2022-12-14T07:33:21.475Z,17.83
2022-12-14T07:34:31.507Z,17.15
2022-12-14T07:35:41.515Z,16.65
2022-12-14T07:36:51.520Z,16.75
2022-12-14T07:37:54.919Z,15.73
2022-12-14T07:38:58.715Z,15.65
2022-12-14T07:40:03.858Z,15.45
2022-12-14T07:41:09.926Z,15.93
2022-12-14T07:42:19.515Z,15.50
2022-12-14T07:43:22.105Z,15.13
2022-12-14T07:44:25.624Z,16.10
2022-12-14T07:45:28.127Z,15.93
2022-12-14T07:46:39.571Z,17.17
2022-12-14T07:47:43.076Z,17.17
2022-12-14T07:48:45.706Z,18.00
2022-12-14T07:49:49.137Z,18.27
2022-12-14T07:50:58.539Z,17.70
2022-12-14T07:52:01.944Z,16.33
2022-12-14T07:53:04.445Z,17.98
2022-12-14T07:54:08.266Z,17.17
2022-12-14T07:55:11.697Z,18.65
2022-12-14T07:56:23.587Z,18.20
2022-12-14T07:57:26.976Z,17.70
2022-12-14T07:58:30.179Z,19.17
2022-12-14T07:59:40.519Z,19.02
2022-12-14T08:00:43.106Z,18.67
2022-12-14T08:01:53.650Z,18.20
2022-12-14T08:03:04.672Z,19.10
2022-12-14T08:04:21.526Z,17.85
2022-12-14T08:05:24.965Z,18.00
2022-12-14T08:06:28.035Z,17.48
2022-12-14T08:07:38.477Z,19.10
2022-12-14T08:08:41.287Z,17.85
2022-12-14T08:09:44.726Z,16.73
2022-12-14T08:10:49.545Z,15.60
2022-12-14T08:12:00.482Z,16.60
2022-12-14T08:13:03.037Z,16.52
2022-12-14T08:14:07.814Z,16.10
2022-12-14T08:15:17.498Z,16.45
2022-12-14T08:16:20.956Z,15.25
2022-12-14T08:17:24.399Z,15.20
2022-12-14T08:18:26.961Z,15.50
2022-12-14T08:19:36.520Z,15.18
2022-12-14T08:20:40.097Z,14.48
2022-12-14T08:21:45.393Z,14.68
2022-12-14T08:22:49.100Z,14.88
2022-12-14T08:23:58.999Z,13.52
2022-12-14T08:25:02.626Z,13.63
2022-12-14T08:26:07.450Z,14.18
2022-12-14T08:27:12.188Z,13.43
2022-12-14T08:28:14.738Z,13.75
2022-12-14T08:29:24.490Z,13.98
2022-12-14T08:30:28.073Z,13.43
2022-12-14T08:31:31.751Z,13.82
2022-12-14T08:32:40.521Z,13.77
2022-12-14T08:33:51.630Z,11.80
2022-12-14T08:34:55.061Z,11.35
2022-12-14T08:35:57.706Z,11.30
2022-12-14T08:37:07.621Z,11.10
2022-12-14T08:38:11.169Z,10.35
2022-12-14T08:39:14.660Z,10.20
2022-12-14T08:40:17.244Z,11.40
2022-12-14T08:41:20.959Z,10.98
2022-12-14T08:42:32.501Z,10.88
2022-12-14T08:43:41.481Z,11.40
2022-12-14T08:44:44.909Z,10.38
2022-12-14T08:45:47.479Z,10.98
2022-12-14T08:46:57.571Z,11.98
2022-12-14T08:48:01.722Z,11.75
2022-12-14T08:49:14.841Z,12.20
2022-12-14T08:50:19.382Z,10.70
2022-12-14T08:51:24.422Z,11.23
2022-12-14T08:52:29.251Z,11.73
2022-12-14T08:53:33.787Z,12.02
2022-12-14T08:54:44.747Z,11.88
2022-12-14T08:55:49.253Z,12.40
2022-12-14T08:56:59.806Z,13.02
2022-12-14T08:58:04.348Z,12.48
2022-12-14T08:59:36.639Z,12.75
2022-12-14T09:00:41.931Z,13.07
2022-12-14T09:01:46.251Z,12.23
2022-12-14T09:02:59.596Z,12.43
2022-12-14T09:04:10.412Z,11.77
2022-12-14T09:05:19.984Z,12.55
2022-12-14T09:06:25.801Z,11.88
2022-12-14T09:07:30.061Z,11.43
2022-12-14T09:08:39.766Z,11.07
2022-12-14T09:09:43.531Z,11.70
2022-12-14T09:10:50.484Z,11.93
2022-12-14T09:11:54.103Z,12.10
2022-12-14T09:12:57.752Z,11.98
2022-12-14T09:14:09.561Z,12.50
2022-12-14T09:15:13.303Z,11.40
2022-12-14T09:16:24.623Z,12.15
2022-12-14T09:17:28.432Z,11.65
2022-12-14T09:18:32.828Z,11.73
2022-12-14T09:19:36.487Z,12.73
2022-12-14T09:20:39.139Z,13.02
2022-12-14T09:21:49.609Z,13.05
2022-12-14T09:22:53.923Z,13.65
2022-12-14T09:23:59.771Z,13.32
2022-12-14T09:25:04.641Z,12.43
2022-12-14T09:26:08.600Z,12.15
2022-12-14T09:27:18.492Z,12.60
2022-12-14T09:28:22.438Z,12.70
2022-12-14T09:29:27.289Z,13.40
2022-12-14T09:30:29.792Z,12.82
2022-12-14T09:31:39.601Z,12.60
2022-12-14T09:32:51.522Z,13.40
2022-12-14T09:33:56.738Z,12.43
2022-12-14T09:35:00.589Z,11.57
2022-12-14T09:36:03.434Z,12.40
2022-12-14T09:37:14.542Z,11.75
2022-12-14T09:38:18.068Z,11.95
2022-12-14T09:39:27.460Z,11.75
2022-12-14T09:40:32.839Z,12.02
2022-12-14T09:42:00.774Z,11.82
2022-12-14T09:43:06.894Z,11.35
2022-12-14T09:44:21.519Z,12.25
2022-12-14T09:45:28.156Z,13.52
2022-12-14T09:46:36.286Z,13.70
2022-12-14T09:47:43.264Z,15.18
2022-12-14T09:48:45.836Z,14.57
2022-12-14T09:49:57.490Z,13.70
2022-12-14T09:51:00.996Z,12.82
2022-12-14T09:52:04.917Z,14.15
2022-12-14T09:53:09.890Z,14.07
2022-12-14T09:54:16.485Z,14.05
2022-12-14T09:55:27.559Z,13.98
2022-12-14T09:56:31.072Z,13.57
2022-12-14T09:57:36.214Z,13.90
2022-12-14T09:58:40.470Z,13.82
2022-12-14T09:59:44.408Z,13.60
2022-12-14T10:00:57.605Z,14.88
2022-12-14T10:02:33.985Z,13.68
2022-12-14T10:03:50.981Z,14.77
2022-12-14T10:04:59.463Z,13.40
2022-12-14T10:06:27.553Z,14.73
2022-12-14T10:07:34.721Z,15.25
2022-12-14T10:08:45.321Z,15.43
2022-12-14T10:09:53.829Z,16.48
2022-12-14T10:11:02.689Z,16.77
2022-12-14T10:12:15.548Z,17.13
2022-12-14T10:13:27.576Z,15.77
2022-12-14T10:14:44.058Z,15.90
2022-12-14T10:15:55.262Z,17.55
2022-12-14T10:17:02.210Z,16.58
2022-12-14T10:18:49.449Z,15.65
2022-12-14T10:19:43.776Z,14.52
2022-12-14T10:20:48.647Z,15.70
2022-12-14T10:21:56.249Z,15.85
2022-12-14T10:23:06.862Z,17.05
2022-12-14T10:24:15.220Z,17.52
2022-12-14T10:25:20.742Z,17.95
2022-12-14T10:26:26.088Z,18.02
2022-12-14T10:27:47.662Z,16.25
2022-12-14T10:29:04.468Z,18.17
2022-12-14T10:30:10.220Z,16.90
2022-12-14T10:31:22.604Z,16.35
2022-12-14T10:32:30.322Z,17.90
2022-12-14T10:33:39.484Z,19.20
2022-12-14T10:34:43.670Z,18.88
2022-12-14T10:35:50.661Z,18.67
2022-12-14T10:36:54.571Z,17.67
2022-12-14T10:38:05.037Z,17.98
2022-12-14T10:39:25.516Z,17.58
2022-12-14T10:40:34.002Z,16.58
2022-12-14T10:41:40.663Z,17.20
2022-12-14T10:42:49.243Z,17.20
2022-12-14T10:44:03.625Z,17.73
2022-12-14T10:46:41.913Z,17.35
2022-12-14T10:47:48.584Z,16.65
2022-12-14T10:48:56.256Z,16.95
2022-12-14T10:50:09.590Z,16.95
2022-12-14T10:51:14.679Z,17.92
2022-12-14T10:52:19.633Z,16.85
2022-12-14T10:53:28.533Z,17.55
2022-12-14T10:54:34.270Z,17.42
2022-12-14T10:55:46.484Z,16.60
2022-12-14T10:56:50.581Z,17.60
2022-12-14T10:57:54.270Z,18.30
2022-12-14T10:59:15.384Z,17.63
2022-12-14T11:00:26.491Z,16.13
2022-12-14T11:01:30.017Z,15.50
2022-12-14T11:02:41.731Z,17.52
2022-12-14T11:03:53.047Z,17.73
2022-12-14T11:04:57.489Z,16.85
2022-12-14T11:06:08.496Z,17.15
2022-12-14T11:07:12.940Z,18.35
2022-12-14T11:08:48.099Z,18.75
2022-12-14T11:09:51.853Z,17.13
2022-12-14T11:11:11.587Z,16.75
2022-12-14T11:12:19.156Z,14.77
2022-12-14T11:13:29.492Z,17.98
2022-12-14T11:14:32.241Z,16.95
2022-12-14T11:15:36.936Z,17.38
2022-12-14T11:16:41.545Z,17.33
2022-12-14T11:17:46.624Z,16.45
2022-12-14T11:19:04.542Z,16.73
2022-12-14T11:20:15.818Z,16.40
2022-12-14T11:21:19.428Z,17.67
2022-12-14T11:22:22.899Z,16.27
2022-12-14T11:23:33.510Z,17.20
2022-12-14T11:24:44.522Z,15.73
2022-12-14T11:25:49.120Z,16.17
2022-12-14T11:26:54.205Z,17.83
2022-12-14T11:27:56.828Z,16.60
2022-12-14T11:29:08.499Z,15.93
2022-12-14T11:30:17.538Z,16.77
2022-12-14T11:31:24.046Z,15.63
2022-12-14T11:32:27.618Z,15.82
2022-12-14T11:33:41.535Z,17.98
2022-12-14T11:34:45.244Z,16.52
2022-12-14T11:35:51.706Z,16.67
2022-12-14T11:36:55.195Z,18.38
2022-12-14T11:38:00.609Z,16.73
2022-12-14T11:39:12.538Z,17.83
2022-12-14T11:40:20.938Z,17.67
2022-12-14T11:41:24.422Z,18.58
2022-12-14T11:42:28.462Z,20.58
2022-12-14T11:43:35.258Z,20.60
2022-12-14T11:44:45.522Z,17.90
2022-12-14T11:45:51.690Z,25.20
2022-12-14T11:46:56.728Z,19.92
2022-12-14T11:48:11.414Z,17.50
2022-12-14T11:49:36.490Z,17.45
2022-12-14T11:50:39.925Z,20.20
2022-12-14T11:51:55.401Z,17.02
2022-12-14T11:53:10.951Z,16.98
2022-12-14T11:54:17.416Z,20.10
2022-12-14T11:55:31.569Z,17.63
2022-12-14T11:56:38.349Z,15.15
2022-12-14T11:57:47.217Z,17.13
2022-12-14T11:58:54.624Z,15.85
2022-12-14T11:59:59.111Z,17.55
2022-12-14T12:01:12.033Z,17.83
2022-12-14T12:02:21.021Z,17.98
2022-12-14T12:03:32.760Z,18.23
2022-12-14T12:04:46.671Z,17.55
2022-12-14T12:05:50.550Z,17.30
2022-12-14T12:07:04.581Z,17.75
2022-12-14T12:08:26.403Z,16.33
2022-12-14T12:09:34.314Z,15.68
2022-12-14T12:10:39.645Z,17.75
2022-12-14T12:11:52.567Z,14.50
2022-12-14T12:12:57.222Z,14.52
2022-12-14T12:14:01.738Z,19.00
2022-12-14T12:15:05.573Z,17.20
2022-12-14T12:16:15.887Z,17.75
2022-12-14T12:17:26.486Z,18.00
2022-12-14T12:18:33.748Z,21.13
2022-12-14T12:19:40.221Z,17.67
2022-12-14T12:20:51.387Z,20.00
2022-12-14T12:22:02.521Z,18.55
2022-12-14T12:23:09.750Z,17.08
2022-12-14T12:24:17.813Z,17.63
2022-12-14T12:25:27.591Z,16.58
2022-12-14T12:26:42.522Z,17.30
2022-12-14T12:27:54.546Z,17.30
2022-12-14T12:29:01.288Z,17.45
2022-12-14T12:30:05.984Z,18.55
2022-12-14T12:31:11.881Z,16.55
2022-12-14T12:32:24.515Z,18.17
2022-12-14T12:33:30.774Z,17.13
2022-12-14T12:34:36.760Z,17.55
2022-12-14T12:35:44.106Z,18.60
2022-12-14T12:37:24.175Z,20.05
2022-12-14T12:38:22.525Z,19.15
2022-12-14T12:39:26.747Z,17.83
2022-12-14T12:40:33.007Z,17.42
2022-12-14T12:41:45.022Z,18.00
2022-12-14T12:42:58.506Z,18.15
2022-12-14T12:44:07.137Z,17.98
2022-12-14T12:45:14.895Z,18.52
2022-12-14T12:46:20.336Z,17.05
2022-12-14T12:47:46.151Z,17.52
2022-12-14T12:48:51.885Z,18.80
2022-12-14T12:49:55.576Z,17.27
2022-12-14T12:51:02.081Z,17.45
2022-12-14T12:52:09.038Z,17.95
2022-12-14T12:53:21.546Z,16.98
2022-12-14T12:54:26.595Z,17.65
2022-12-14T12:55:30.860Z,15.35
2022-12-14T12:56:41.890Z,16.52
2022-12-14T12:57:47.106Z,14.93
2022-12-14T12:58:58.597Z,15.90
2022-12-14T13:00:05.927Z,15.10
2022-12-14T13:01:15.654Z,15.85
2022-12-14T13:02:22.508Z,16.83
2022-12-14T13:03:37.498Z,14.80
2022-12-14T13:04:56.542Z,16.02
2022-12-14T13:06:08.510Z,13.98
2022-12-14T13:07:18.264Z,13.27
2022-12-14T13:08:24.734Z,13.93
2022-12-14T13:09:41.547Z,15.00
2022-12-14T13:11:24.143Z,15.32
2022-12-14T13:12:16.527Z,14.23
2022-12-14T13:13:22.708Z,15.38
2022-12-14T13:14:30.566Z,14.88
2022-12-14T13:15:41.592Z,15.60
2022-12-14T13:16:45.795Z,15.60
2022-12-14T13:17:49.585Z,16.17
2022-12-14T13:19:04.805Z,15.55
2022-12-14T13:20:20.313Z,15.30
2022-12-14T13:21:36.541Z,14.75
2022-12-14T13:22:42.535Z,16.10
2022-12-14T13:23:57.537Z,16.38
2022-12-14T13:25:03.954Z,14.55
2022-12-14T13:26:28.139Z,15.48
2022-12-14T13:27:52.086Z,13.85
2022-12-14T13:29:06.546Z,15.52
2022-12-14T13:30:20.447Z,15.43
2022-12-14T13:31:30.981Z,16.23
2022-12-14T13:32:38.838Z,15.38
2022-12-14T13:34:01.504Z,15.80
2022-12-14T13:35:14.560Z,15.48
2022-12-14T13:36:26.882Z,14.77
2022-12-14T13:37:47.717Z,16.52
2022-12-14T13:39:01.020Z,17.60
2022-12-14T13:40:29.585Z,17.52
2022-12-14T13:41:36.026Z,16.23
2022-12-14T13:42:42.581Z,15.60
2022-12-14T13:43:54.919Z,16.02
2022-12-14T13:44:59.858Z,16.05
2022-12-14T13:46:14.565Z,16.90
2022-12-14T13:47:20.689Z,19.35
2022-12-14T13:48:25.386Z,17.67
2022-12-14T13:49:28.474Z,18.52
2022-12-14T13:50:37.324Z,19.50
2022-12-14T13:51:50.316Z,20.83
2022-12-14T13:52:57.764Z,19.95
2022-12-14T13:54:03.031Z,23.17
2022-12-14T13:55:20.765Z,21.65
2022-12-14T13:56:30.996Z,21.63
2022-12-14T13:57:43.577Z,21.02
2022-12-14T13:58:49.354Z,20.00
2022-12-14T13:59:53.828Z,21.88
2022-12-14T14:00:58.752Z,22.02
2022-12-14T14:02:03.423Z,22.52
2022-12-14T14:03:12.607Z,20.42
2022-12-14T14:04:30.124Z,19.88
2022-12-14T14:05:54.191Z,23.45
2022-12-14T14:07:05.571Z,22.10
2022-12-14T14:08:32.341Z,22.25
2022-12-14T14:09:55.331Z,22.75
2022-12-14T14:11:35.381Z,21.05
2022-12-14T14:12:39.496Z,21.23
2022-12-14T14:14:01.472Z,22.60
2022-12-14T14:15:11.835Z,18.77
2022-12-14T14:16:28.461Z,23.33
2022-12-14T14:17:43.629Z,21.35
2022-12-14T14:18:49.955Z,19.83
2022-12-14T14:20:01.523Z,21.95
2022-12-14T14:21:23.793Z,20.80
2022-12-14T14:22:34.479Z,19.35
2022-12-14T14:23:38.620Z,19.38
2022-12-14T14:25:10.101Z,20.17
2022-12-14T14:26:21.294Z,19.77
2022-12-14T14:27:25.618Z,20.80
2022-12-14T14:28:29.951Z,20.00
2022-12-14T14:29:33.766Z,21.92
2022-12-14T14:30:43.497Z,22.13
2022-12-14T14:32:15.491Z,21.75
2022-12-14T14:33:47.592Z,19.88
2022-12-14T14:34:52.471Z,21.92
2022-12-14T14:36:15.484Z,22.58
2022-12-14T14:37:36.791Z,20.75
2022-12-14T14:38:41.609Z,21.58
2022-12-14T14:40:13.506Z,20.33
2022-12-14T14:41:19.257Z,23.52
2022-12-14T14:42:24.611Z,21.90
2022-12-14T14:43:31.033Z,21.30
2022-12-14T14:44:46.640Z,22.20
2022-12-14T14:45:58.540Z,21.35
2022-12-14T14:47:07.472Z,22.42
2022-12-14T14:48:12.877Z,20.92